<?xml version="1.0" encoding="UTF-8" standalone="no" ?>
<gpx xmlns="http://www.topografix.com/GPX/1/1" xmlns:xsi="http://www.w3.org/2001/XMLSchema-instance" xsi:schemaLocation="http://www.topografix.com/GPX/1/1 http://www.topografix.com/GPX/1/1/gpx.xsd" version="1.1" creator="VisuGPX - https://www.visugpx.com">
  <metadata>
    <name>Tour cycliste 2013 (journée 1)</name>
    <desc><![CDATA[Parcours vélo de la classe de CM1/CM2 de Noidans les Vesoul]]></desc>
  </metadata>
  <trk>
    <name><![CDATA[Petit tour on GPSies.com]]></name>
    <trkseg>
      <trkpt lat="47.70308" lon="6.62087">
        <ele>449</ele>
        <time>2010-01-01T00:00:00Z</time>
      </trkpt>
      <trkpt lat="47.7035" lon="6.62117">
        <ele>448</ele>
        <time>2010-01-01T00:00:18Z</time>
      </trkpt>
      <trkpt lat="47.70384" lon="6.62173">
        <ele>439</ele>
        <time>2010-01-01T00:00:38Z</time>
      </trkpt>
      <trkpt lat="47.70437" lon="6.62201">
        <ele>433</ele>
        <time>2010-01-01T00:01:01Z</time>
      </trkpt>
      <trkpt lat="47.70533" lon="6.62219">
        <ele>430</ele>
        <time>2010-01-01T00:01:40Z</time>
      </trkpt>
      <trkpt lat="47.70565" lon="6.62251">
        <ele>424</ele>
        <time>2010-01-01T00:01:55Z</time>
      </trkpt>
      <trkpt lat="47.70591" lon="6.6235">
        <ele>422</ele>
        <time>2010-01-01T00:02:24Z</time>
      </trkpt>
      <trkpt lat="47.70595" lon="6.62421">
        <ele>425</ele>
        <time>2010-01-01T00:02:43Z</time>
      </trkpt>
      <trkpt lat="47.70606" lon="6.62492">
        <ele>429</ele>
        <time>2010-01-01T00:03:03Z</time>
      </trkpt>
      <trkpt lat="47.70603" lon="6.62568">
        <ele>433</ele>
        <time>2010-01-01T00:03:23Z</time>
      </trkpt>
      <trkpt lat="47.70583" lon="6.6263">
        <ele>432</ele>
        <time>2010-01-01T00:03:42Z</time>
      </trkpt>
      <trkpt lat="47.70482" lon="6.62742">
        <ele>412</ele>
        <time>2010-01-01T00:04:32Z</time>
      </trkpt>
      <trkpt lat="47.70375" lon="6.62836">
        <ele>384</ele>
        <time>2010-01-01T00:05:22Z</time>
      </trkpt>
      <trkpt lat="47.70296" lon="6.629">
        <ele>371</ele>
        <time>2010-01-01T00:05:58Z</time>
      </trkpt>
      <trkpt lat="47.70256" lon="6.62954">
        <ele>365</ele>
        <time>2010-01-01T00:06:20Z</time>
      </trkpt>
      <trkpt lat="47.70239" lon="6.62979">
        <ele>362</ele>
        <time>2010-01-01T00:06:29Z</time>
      </trkpt>
      <trkpt lat="47.70232" lon="6.62988">
        <ele>361</ele>
        <time>2010-01-01T00:06:29Z</time>
      </trkpt>
      <trkpt lat="47.70208" lon="6.63026">
        <ele>359</ele>
        <time>2010-01-01T00:06:43Z</time>
      </trkpt>
      <trkpt lat="47.70159" lon="6.63063">
        <ele>353</ele>
        <time>2010-01-01T00:07:05Z</time>
      </trkpt>
      <trkpt lat="47.70131" lon="6.63094">
        <ele>350</ele>
        <time>2010-01-01T00:07:19Z</time>
      </trkpt>
      <trkpt lat="47.70105" lon="6.63081">
        <ele>350</ele>
        <time>2010-01-01T00:07:30Z</time>
      </trkpt>
      <trkpt lat="47.70084" lon="6.6304">
        <ele>350</ele>
        <time>2010-01-01T00:07:44Z</time>
      </trkpt>
      <trkpt lat="47.70017" lon="6.63074">
        <ele>345</ele>
        <time>2010-01-01T00:08:12Z</time>
      </trkpt>
      <trkpt lat="47.70015" lon="6.63134">
        <ele>345</ele>
        <time>2010-01-01T00:08:29Z</time>
      </trkpt>
      <trkpt lat="47.70032" lon="6.63272">
        <ele>347</ele>
        <time>2010-01-01T00:09:06Z</time>
      </trkpt>
      <trkpt lat="47.69917" lon="6.63336">
        <ele>340</ele>
        <time>2010-01-01T00:09:56Z</time>
      </trkpt>
      <trkpt lat="47.69902" lon="6.63329">
        <ele>340</ele>
        <time>2010-01-01T00:10:02Z</time>
      </trkpt>
      <trkpt lat="47.69887" lon="6.63231">
        <ele>340</ele>
        <time>2010-01-01T00:10:29Z</time>
      </trkpt>
      <trkpt lat="47.69858" lon="6.63168">
        <ele>340</ele>
        <time>2010-01-01T00:10:50Z</time>
      </trkpt>
      <trkpt lat="47.69815" lon="6.63131">
        <ele>340</ele>
        <time>2010-01-01T00:11:10Z</time>
      </trkpt>
      <trkpt lat="47.69731" lon="6.63128">
        <ele>341</ele>
        <time>2010-01-01T00:11:43Z</time>
      </trkpt>
      <trkpt lat="47.69696" lon="6.63115">
        <ele>342</ele>
        <time>2010-01-01T00:11:58Z</time>
      </trkpt>
      <trkpt lat="47.6963" lon="6.63076">
        <ele>342</ele>
        <time>2010-01-01T00:12:26Z</time>
      </trkpt>
      <trkpt lat="47.69578" lon="6.63075">
        <ele>342</ele>
        <time>2010-01-01T00:12:47Z</time>
      </trkpt>
      <trkpt lat="47.69509" lon="6.63113">
        <ele>342</ele>
        <time>2010-01-01T00:13:16Z</time>
      </trkpt>
      <trkpt lat="47.69456" lon="6.63152">
        <ele>343</ele>
        <time>2010-01-01T00:13:40Z</time>
      </trkpt>
      <trkpt lat="47.69384" lon="6.63156">
        <ele>343</ele>
        <time>2010-01-01T00:14:09Z</time>
      </trkpt>
      <trkpt lat="47.69281" lon="6.63195">
        <ele>342</ele>
        <time>2010-01-01T00:14:51Z</time>
      </trkpt>
      <trkpt lat="47.69187" lon="6.63161">
        <ele>343</ele>
        <time>2010-01-01T00:15:30Z</time>
      </trkpt>
      <trkpt lat="47.6916" lon="6.63162">
        <ele>343</ele>
        <time>2010-01-01T00:15:41Z</time>
      </trkpt>
      <trkpt lat="47.69141" lon="6.6319">
        <ele>344</ele>
        <time>2010-01-01T00:15:51Z</time>
      </trkpt>
      <trkpt lat="47.69109" lon="6.63281">
        <ele>344</ele>
        <time>2010-01-01T00:16:19Z</time>
      </trkpt>
      <trkpt lat="47.69065" lon="6.63314">
        <ele>347</ele>
        <time>2010-01-01T00:16:39Z</time>
      </trkpt>
      <trkpt lat="47.68957" lon="6.63365">
        <ele>351</ele>
        <time>2010-01-01T00:17:24Z</time>
      </trkpt>
      <trkpt lat="47.68897" lon="6.63341">
        <ele>355</ele>
        <time>2010-01-01T00:17:49Z</time>
      </trkpt>
      <trkpt lat="47.68754" lon="6.63302">
        <ele>358</ele>
        <time>2010-01-01T00:18:47Z</time>
      </trkpt>
      <trkpt lat="47.68693" lon="6.63264">
        <ele>360</ele>
        <time>2010-01-01T00:19:14Z</time>
      </trkpt>
      <trkpt lat="47.68647" lon="6.6321">
        <ele>363</ele>
        <time>2010-01-01T00:19:37Z</time>
      </trkpt>
      <trkpt lat="47.68624" lon="6.63175">
        <ele>364</ele>
        <time>2010-01-01T00:19:50Z</time>
      </trkpt>
      <trkpt lat="47.68615" lon="6.63114">
        <ele>371</ele>
        <time>2010-01-01T00:20:07Z</time>
      </trkpt>
      <trkpt lat="47.68602" lon="6.63033">
        <ele>376</ele>
        <time>2010-01-01T00:20:30Z</time>
      </trkpt>
      <trkpt lat="47.68583" lon="6.62992">
        <ele>375</ele>
        <time>2010-01-01T00:20:43Z</time>
      </trkpt>
      <trkpt lat="47.68536" lon="6.62948">
        <ele>374</ele>
        <time>2010-01-01T00:21:06Z</time>
      </trkpt>
      <trkpt lat="47.68498" lon="6.62918">
        <ele>375</ele>
        <time>2010-01-01T00:21:23Z</time>
      </trkpt>
      <trkpt lat="47.68445" lon="6.6289">
        <ele>376</ele>
        <time>2010-01-01T00:21:45Z</time>
      </trkpt>
      <trkpt lat="47.6838" lon="6.62828">
        <ele>382</ele>
        <time>2010-01-01T00:22:16Z</time>
      </trkpt>
      <trkpt lat="47.68356" lon="6.62803">
        <ele>383</ele>
        <time>2010-01-01T00:22:28Z</time>
      </trkpt>
      <trkpt lat="47.68316" lon="6.6279">
        <ele>382</ele>
        <time>2010-01-01T00:22:44Z</time>
      </trkpt>
      <trkpt lat="47.68262" lon="6.62729">
        <ele>388</ele>
        <time>2010-01-01T00:23:11Z</time>
      </trkpt>
      <trkpt lat="47.68221" lon="6.62676">
        <ele>392</ele>
        <time>2010-01-01T00:23:33Z</time>
      </trkpt>
      <trkpt lat="47.68199" lon="6.6266">
        <ele>391</ele>
        <time>2010-01-01T00:23:43Z</time>
      </trkpt>
      <trkpt lat="47.68145" lon="6.62656">
        <ele>391</ele>
        <time>2010-01-01T00:24:04Z</time>
      </trkpt>
      <trkpt lat="47.68095" lon="6.62619">
        <ele>398</ele>
        <time>2010-01-01T00:24:27Z</time>
      </trkpt>
      <trkpt lat="47.67968" lon="6.62582">
        <ele>402</ele>
        <time>2010-01-01T00:25:19Z</time>
      </trkpt>
      <trkpt lat="47.67927" lon="6.62592">
        <ele>405</ele>
        <time>2010-01-01T00:25:35Z</time>
      </trkpt>
      <trkpt lat="47.67883" lon="6.62641">
        <ele>407</ele>
        <time>2010-01-01T00:25:58Z</time>
      </trkpt>
      <trkpt lat="47.67788" lon="6.62767">
        <ele>408</ele>
        <time>2010-01-01T00:26:49Z</time>
      </trkpt>
      <trkpt lat="47.67743" lon="6.6283">
        <ele>407</ele>
        <time>2010-01-01T00:27:13Z</time>
      </trkpt>
      <trkpt lat="47.67701" lon="6.62857">
        <ele>406</ele>
        <time>2010-01-01T00:27:32Z</time>
      </trkpt>
      <trkpt lat="47.67677" lon="6.62852">
        <ele>404</ele>
        <time>2010-01-01T00:27:41Z</time>
      </trkpt>
      <trkpt lat="47.67654" lon="6.62825">
        <ele>381</ele>
        <time>2010-01-01T00:27:53Z</time>
      </trkpt>
      <trkpt lat="47.67525" lon="6.62689">
        <ele>395</ele>
        <time>2010-01-01T00:28:56Z</time>
      </trkpt>
      <trkpt lat="47.67492" lon="6.62657">
        <ele>394</ele>
        <time>2010-01-01T00:29:12Z</time>
      </trkpt>
      <trkpt lat="47.67456" lon="6.6266">
        <ele>394</ele>
        <time>2010-01-01T00:29:27Z</time>
      </trkpt>
      <trkpt lat="47.67341" lon="6.62724">
        <ele>388</ele>
        <time>2010-01-01T00:30:16Z</time>
      </trkpt>
      <trkpt lat="47.6731" lon="6.62725">
        <ele>385</ele>
        <time>2010-01-01T00:30:28Z</time>
      </trkpt>
      <trkpt lat="47.67251" lon="6.62664">
        <ele>381</ele>
        <time>2010-01-01T00:30:57Z</time>
      </trkpt>
      <trkpt lat="47.67225" lon="6.62645">
        <ele>379</ele>
        <time>2010-01-01T00:31:09Z</time>
      </trkpt>
      <trkpt lat="47.67186" lon="6.62668">
        <ele>376</ele>
        <time>2010-01-01T00:31:26Z</time>
      </trkpt>
      <trkpt lat="47.67081" lon="6.6276">
        <ele>365</ele>
        <time>2010-01-01T00:32:14Z</time>
      </trkpt>
      <trkpt lat="47.67054" lon="6.62761">
        <ele>363</ele>
        <time>2010-01-01T00:32:25Z</time>
      </trkpt>
      <trkpt lat="47.66961" lon="6.62707">
        <ele>357</ele>
        <time>2010-01-01T00:33:05Z</time>
      </trkpt>
      <trkpt lat="47.66817" lon="6.62592">
        <ele>350</ele>
        <time>2010-01-01T00:34:11Z</time>
      </trkpt>
      <trkpt lat="47.66753" lon="6.62497">
        <ele>348</ele>
        <time>2010-01-01T00:34:47Z</time>
      </trkpt>
      <trkpt lat="47.66678" lon="6.62341">
        <ele>344</ele>
        <time>2010-01-01T00:35:39Z</time>
      </trkpt>
      <trkpt lat="47.66586" lon="6.62193">
        <ele>337</ele>
        <time>2010-01-01T00:36:33Z</time>
      </trkpt>
      <trkpt lat="47.66565" lon="6.62152">
        <ele>337</ele>
        <time>2010-01-01T00:36:47Z</time>
      </trkpt>
      <trkpt lat="47.66541" lon="6.6207">
        <ele>336</ele>
        <time>2010-01-01T00:37:11Z</time>
      </trkpt>
      <trkpt lat="47.6652" lon="6.62038">
        <ele>334</ele>
        <time>2010-01-01T00:37:23Z</time>
      </trkpt>
      <trkpt lat="47.66501" lon="6.6205">
        <ele>331</ele>
        <time>2010-01-01T00:37:31Z</time>
      </trkpt>
      <trkpt lat="47.66504" lon="6.621">
        <ele>330</ele>
        <time>2010-01-01T00:37:44Z</time>
      </trkpt>
      <trkpt lat="47.66502" lon="6.62143">
        <ele>329</ele>
        <time>2010-01-01T00:37:56Z</time>
      </trkpt>
      <trkpt lat="47.66481" lon="6.62165">
        <ele>327</ele>
        <time>2010-01-01T00:38:06Z</time>
      </trkpt>
      <trkpt lat="47.66446" lon="6.62142">
        <ele>325</ele>
        <time>2010-01-01T00:38:22Z</time>
      </trkpt>
      <trkpt lat="47.66418" lon="6.62113">
        <ele>326</ele>
        <time>2010-01-01T00:38:35Z</time>
      </trkpt>
      <trkpt lat="47.66393" lon="6.62048">
        <ele>324</ele>
        <time>2010-01-01T00:38:56Z</time>
      </trkpt>
      <trkpt lat="47.66386" lon="6.62">
        <ele>323</ele>
        <time>2010-01-01T00:39:09Z</time>
      </trkpt>
      <trkpt lat="47.66411" lon="6.61926">
        <ele>322</ele>
        <time>2010-01-01T00:39:31Z</time>
      </trkpt>
      <trkpt lat="47.66411" lon="6.61819">
        <ele>327</ele>
        <time>2010-01-01T00:40:00Z</time>
      </trkpt>
      <trkpt lat="47.66431" lon="6.61747">
        <ele>331</ele>
        <time>2010-01-01T00:40:21Z</time>
      </trkpt>
      <trkpt lat="47.66542" lon="6.6155">
        <ele>334</ele>
        <time>2010-01-01T00:41:30Z</time>
      </trkpt>
      <trkpt lat="47.66601" lon="6.61491">
        <ele>335</ele>
        <time>2010-01-01T00:41:59Z</time>
      </trkpt>
      <trkpt lat="47.66649" lon="6.61418">
        <ele>335</ele>
        <time>2010-01-01T00:42:26Z</time>
      </trkpt>
      <trkpt lat="47.66651" lon="6.61398">
        <ele>335</ele>
        <time>2010-01-01T00:42:26Z</time>
      </trkpt>
      <trkpt lat="47.66641" lon="6.61374">
        <ele>333</ele>
        <time>2010-01-01T00:42:34Z</time>
      </trkpt>
      <trkpt lat="47.66626" lon="6.61346">
        <ele>331</ele>
        <time>2010-01-01T00:42:43Z</time>
      </trkpt>
      <trkpt lat="47.66619" lon="6.61316">
        <ele>330</ele>
        <time>2010-01-01T00:42:52Z</time>
      </trkpt>
      <trkpt lat="47.66612" lon="6.61235">
        <ele>327</ele>
        <time>2010-01-01T00:43:14Z</time>
      </trkpt>
      <trkpt lat="47.66606" lon="6.61091">
        <ele>325</ele>
        <time>2010-01-01T00:43:53Z</time>
      </trkpt>
      <trkpt lat="47.66595" lon="6.61024">
        <ele>324</ele>
        <time>2010-01-01T00:44:12Z</time>
      </trkpt>
      <trkpt lat="47.66589" lon="6.60907">
        <ele>322</ele>
        <time>2010-01-01T00:44:43Z</time>
      </trkpt>
      <trkpt lat="47.6658" lon="6.60833">
        <ele>321</ele>
        <time>2010-01-01T00:45:03Z</time>
      </trkpt>
      <trkpt lat="47.6659" lon="6.60687">
        <ele>320</ele>
        <time>2010-01-01T00:45:43Z</time>
      </trkpt>
      <trkpt lat="47.66536" lon="6.60517">
        <ele>323</ele>
        <time>2010-01-01T00:46:34Z</time>
      </trkpt>
      <trkpt lat="47.66521" lon="6.60465">
        <ele>320</ele>
        <time>2010-01-01T00:46:49Z</time>
      </trkpt>
      <trkpt lat="47.66503" lon="6.60296">
        <ele>319</ele>
        <time>2010-01-01T00:47:35Z</time>
      </trkpt>
      <trkpt lat="47.66479" lon="6.60215">
        <ele>319</ele>
        <time>2010-01-01T00:47:59Z</time>
      </trkpt>
      <trkpt lat="47.66413" lon="6.60163">
        <ele>317</ele>
        <time>2010-01-01T00:48:29Z</time>
      </trkpt>
      <trkpt lat="47.66332" lon="6.60109">
        <ele>320</ele>
        <time>2010-01-01T00:49:04Z</time>
      </trkpt>
      <trkpt lat="47.66249" lon="6.60004">
        <ele>327</ele>
        <time>2010-01-01T00:49:48Z</time>
      </trkpt>
      <trkpt lat="47.66124" lon="6.59873">
        <ele>325</ele>
        <time>2010-01-01T00:50:49Z</time>
      </trkpt>
      <trkpt lat="47.66094" lon="6.59844">
        <ele>324</ele>
        <time>2010-01-01T00:51:04Z</time>
      </trkpt>
      <trkpt lat="47.66022" lon="6.59824">
        <ele>324</ele>
        <time>2010-01-01T00:51:33Z</time>
      </trkpt>
      <trkpt lat="47.65924" lon="6.59883">
        <ele>325</ele>
        <time>2010-01-01T00:52:15Z</time>
      </trkpt>
      <trkpt lat="47.65878" lon="6.59906">
        <ele>326</ele>
        <time>2010-01-01T00:52:35Z</time>
      </trkpt>
      <trkpt lat="47.6573" lon="6.59938">
        <ele>326</ele>
        <time>2010-01-01T00:53:34Z</time>
      </trkpt>
      <trkpt lat="47.65641" lon="6.59844">
        <ele>322</ele>
        <time>2010-01-01T00:54:18Z</time>
      </trkpt>
      <trkpt lat="47.65598" lon="6.59794">
        <ele>321</ele>
        <time>2010-01-01T00:54:40Z</time>
      </trkpt>
      <trkpt lat="47.65561" lon="6.59707">
        <ele>320</ele>
        <time>2010-01-01T00:55:08Z</time>
      </trkpt>
      <trkpt lat="47.65544" lon="6.59613">
        <ele>318</ele>
        <time>2010-01-01T00:55:34Z</time>
      </trkpt>
      <trkpt lat="47.65522" lon="6.59581">
        <ele>317</ele>
        <time>2010-01-01T00:55:46Z</time>
      </trkpt>
      <trkpt lat="47.65489" lon="6.59562">
        <ele>317</ele>
        <time>2010-01-01T00:56:00Z</time>
      </trkpt>
      <trkpt lat="47.65466" lon="6.5953">
        <ele>316</ele>
        <time>2010-01-01T00:56:13Z</time>
      </trkpt>
      <trkpt lat="47.65434" lon="6.59531">
        <ele>316</ele>
        <time>2010-01-01T00:56:26Z</time>
      </trkpt>
      <trkpt lat="47.65379" lon="6.59496">
        <ele>315</ele>
        <time>2010-01-01T00:56:50Z</time>
      </trkpt>
      <trkpt lat="47.65318" lon="6.59451">
        <ele>315</ele>
        <time>2010-01-01T00:57:17Z</time>
      </trkpt>
      <trkpt lat="47.65254" lon="6.59359">
        <ele>316</ele>
        <time>2010-01-01T00:57:53Z</time>
      </trkpt>
      <trkpt lat="47.6516" lon="6.59222">
        <ele>315</ele>
        <time>2010-01-01T00:58:46Z</time>
      </trkpt>
      <trkpt lat="47.65155" lon="6.59172">
        <ele>316</ele>
        <time>2010-01-01T00:58:59Z</time>
      </trkpt>
      <trkpt lat="47.6517" lon="6.59113">
        <ele>316</ele>
        <time>2010-01-01T00:59:16Z</time>
      </trkpt>
      <trkpt lat="47.6517" lon="6.5906">
        <ele>315</ele>
        <time>2010-01-01T00:59:31Z</time>
      </trkpt>
      <trkpt lat="47.64849" lon="6.58601">
        <ele>310</ele>
        <time>2010-01-01T01:02:29Z</time>
      </trkpt>
      <trkpt lat="47.6481" lon="6.58551">
        <ele>310</ele>
        <time>2010-01-01T01:02:50Z</time>
      </trkpt>
      <trkpt lat="47.64765" lon="6.58507">
        <ele>310</ele>
        <time>2010-01-01T01:03:11Z</time>
      </trkpt>
      <trkpt lat="47.64785" lon="6.58432">
        <ele>308</ele>
        <time>2010-01-01T01:03:33Z</time>
      </trkpt>
      <trkpt lat="47.64817" lon="6.58375">
        <ele>305</ele>
        <time>2010-01-01T01:03:53Z</time>
      </trkpt>
      <trkpt lat="47.64829" lon="6.58289">
        <ele>301</ele>
        <time>2010-01-01T01:04:17Z</time>
      </trkpt>
      <trkpt lat="47.64866" lon="6.58135">
        <ele>300</ele>
        <time>2010-01-01T01:05:01Z</time>
      </trkpt>
      <trkpt lat="47.64851" lon="6.58061">
        <ele>302</ele>
        <time>2010-01-01T01:05:22Z</time>
      </trkpt>
      <trkpt lat="47.64821" lon="6.58025">
        <ele>302</ele>
        <time>2010-01-01T01:05:37Z</time>
      </trkpt>
      <trkpt lat="47.64778" lon="6.58008">
        <ele>301</ele>
        <time>2010-01-01T01:05:55Z</time>
      </trkpt>
      <trkpt lat="47.64704" lon="6.57876">
        <ele>301</ele>
        <time>2010-01-01T01:06:41Z</time>
      </trkpt>
      <trkpt lat="47.64666" lon="6.5781">
        <ele>302</ele>
        <time>2010-01-01T01:07:05Z</time>
      </trkpt>
      <trkpt lat="47.64594" lon="6.57757">
        <ele>305</ele>
        <time>2010-01-01T01:07:37Z</time>
      </trkpt>
      <trkpt lat="47.64561" lon="6.57721">
        <ele>306</ele>
        <time>2010-01-01T01:07:53Z</time>
      </trkpt>
      <trkpt lat="47.64522" lon="6.57628">
        <ele>308</ele>
        <time>2010-01-01T01:08:23Z</time>
      </trkpt>
      <trkpt lat="47.64131" lon="6.56367">
        <ele>305</ele>
        <time>2010-01-01T01:14:37Z</time>
      </trkpt>
      <trkpt lat="47.63877" lon="6.56037">
        <ele>303</ele>
        <time>2010-01-01T01:16:52Z</time>
      </trkpt>
      <trkpt lat="47.63793" lon="6.55937">
        <ele>304</ele>
        <time>2010-01-01T01:17:35Z</time>
      </trkpt>
      <trkpt lat="47.6369" lon="6.55802">
        <ele>301</ele>
        <time>2010-01-01T01:18:30Z</time>
      </trkpt>
      <trkpt lat="47.63667" lon="6.55764">
        <ele>301</ele>
        <time>2010-01-01T01:18:44Z</time>
      </trkpt>
      <trkpt lat="47.63618" lon="6.55733">
        <ele>301</ele>
        <time>2010-01-01T01:19:05Z</time>
      </trkpt>
      <trkpt lat="47.63583" lon="6.55697">
        <ele>300</ele>
        <time>2010-01-01T01:19:22Z</time>
      </trkpt>
      <trkpt lat="47.63537" lon="6.55617">
        <ele>297</ele>
        <time>2010-01-01T01:19:51Z</time>
      </trkpt>
      <trkpt lat="47.635" lon="6.55581">
        <ele>298</ele>
        <time>2010-01-01T01:20:09Z</time>
      </trkpt>
      <trkpt lat="47.63449" lon="6.55507">
        <ele>296</ele>
        <time>2010-01-01T01:20:37Z</time>
      </trkpt>
      <trkpt lat="47.6338" lon="6.55465">
        <ele>296</ele>
        <time>2010-01-01T01:21:07Z</time>
      </trkpt>
      <trkpt lat="47.63273" lon="6.55196">
        <ele>295</ele>
        <time>2010-01-01T01:22:31Z</time>
      </trkpt>
      <trkpt lat="47.63188" lon="6.55243">
        <ele>295</ele>
        <time>2010-01-01T01:23:07Z</time>
      </trkpt>
      <trkpt lat="47.62989" lon="6.5525">
        <ele>297</ele>
        <time>2010-01-01T01:24:27Z</time>
      </trkpt>
      <trkpt lat="47.62921" lon="6.55154">
        <ele>299</ele>
        <time>2010-01-01T01:25:05Z</time>
      </trkpt>
      <trkpt lat="47.62879" lon="6.55062">
        <ele>309</ele>
        <time>2010-01-01T01:25:35Z</time>
      </trkpt>
      <trkpt lat="47.6284" lon="6.55075">
        <ele>310</ele>
        <time>2010-01-01T01:25:51Z</time>
      </trkpt>
      <trkpt lat="47.62732" lon="6.55027">
        <ele>310</ele>
        <time>2010-01-01T01:26:36Z</time>
      </trkpt>
      <trkpt lat="47.62508" lon="6.54806">
        <ele>323</ele>
        <time>2010-01-01T01:28:24Z</time>
      </trkpt>
      <trkpt lat="47.62146" lon="6.54164">
        <ele>313</ele>
        <time>2010-01-01T01:32:09Z</time>
      </trkpt>
      <trkpt lat="47.61627" lon="6.53397">
        <ele>297</ele>
        <time>2010-01-01T01:37:03Z</time>
      </trkpt>
      <trkpt lat="47.61393" lon="6.53196">
        <ele>287</ele>
        <time>2010-01-01T01:38:51Z</time>
      </trkpt>
      <trkpt lat="47.61351" lon="6.53116">
        <ele>285</ele>
        <time>2010-01-01T01:39:18Z</time>
      </trkpt>
      <trkpt lat="47.61341" lon="6.53028">
        <ele>285</ele>
        <time>2010-01-01T01:39:42Z</time>
      </trkpt>
      <trkpt lat="47.61342" lon="6.52745">
        <ele>286</ele>
        <time>2010-01-01T01:40:59Z</time>
      </trkpt>
      <trkpt lat="47.61317" lon="6.52617">
        <ele>285</ele>
        <time>2010-01-01T01:41:35Z</time>
      </trkpt>
      <trkpt lat="47.61235" lon="6.52467">
        <ele>283</ele>
        <time>2010-01-01T01:42:27Z</time>
      </trkpt>
      <trkpt lat="47.61204" lon="6.52448">
        <ele>283</ele>
        <time>2010-01-01T01:42:40Z</time>
      </trkpt>
      <trkpt lat="47.61166" lon="6.52442">
        <ele>283</ele>
        <time>2010-01-01T01:42:56Z</time>
      </trkpt>
      <trkpt lat="47.61125" lon="6.52395">
        <ele>284</ele>
        <time>2010-01-01T01:43:16Z</time>
      </trkpt>
      <trkpt lat="47.6099" lon="6.52328">
        <ele>286</ele>
        <time>2010-01-01T01:44:13Z</time>
      </trkpt>
      <trkpt lat="47.6088" lon="6.52249">
        <ele>293</ele>
        <time>2010-01-01T01:45:02Z</time>
      </trkpt>
      <trkpt lat="47.60806" lon="6.52243">
        <ele>298</ele>
        <time>2010-01-01T01:45:32Z</time>
      </trkpt>
      <trkpt lat="47.60713" lon="6.52186">
        <ele>299</ele>
        <time>2010-01-01T01:46:12Z</time>
      </trkpt>
      <trkpt lat="47.60585" lon="6.52179">
        <ele>289</ele>
        <time>2010-01-01T01:47:03Z</time>
      </trkpt>
      <trkpt lat="47.60552" lon="6.5217">
        <ele>285</ele>
        <time>2010-01-01T01:47:17Z</time>
      </trkpt>
      <trkpt lat="47.60506" lon="6.52123">
        <ele>283</ele>
        <time>2010-01-01T01:47:39Z</time>
      </trkpt>
      <trkpt lat="47.60468" lon="6.5205">
        <ele>286</ele>
        <time>2010-01-01T01:48:04Z</time>
      </trkpt>
      <trkpt lat="47.60419" lon="6.5192">
        <ele>291</ele>
        <time>2010-01-01T01:48:44Z</time>
      </trkpt>
      <trkpt lat="47.60331" lon="6.51747">
        <ele>292</ele>
        <time>2010-01-01T01:49:43Z</time>
      </trkpt>
      <trkpt lat="47.60241" lon="6.51683">
        <ele>296</ele>
        <time>2010-01-01T01:50:23Z</time>
      </trkpt>
      <trkpt lat="47.59745" lon="6.51138">
        <ele>306</ele>
        <time>2010-01-01T01:54:30Z</time>
      </trkpt>
      <trkpt lat="47.59749" lon="6.51092">
        <ele>306</ele>
        <time>2010-01-01T01:54:43Z</time>
      </trkpt>
      <trkpt lat="47.59755" lon="6.51039">
        <ele>306</ele>
        <time>2010-01-01T01:54:57Z</time>
      </trkpt>
      <trkpt lat="47.59732" lon="6.50994">
        <ele>305</ele>
        <time>2010-01-01T01:55:12Z</time>
      </trkpt>
      <trkpt lat="47.59509" lon="6.5079">
        <ele>303</ele>
        <time>2010-01-01T01:56:57Z</time>
      </trkpt>
      <trkpt lat="47.59526" lon="6.50754">
        <ele>304</ele>
        <time>2010-01-01T01:57:09Z</time>
      </trkpt>
      <trkpt lat="47.59544" lon="6.50716">
        <ele>304</ele>
        <time>2010-01-01T01:57:21Z</time>
      </trkpt>
      <trkpt lat="47.59529" lon="6.50675">
        <ele>305</ele>
        <time>2010-01-01T01:57:34Z</time>
      </trkpt>
      <trkpt lat="47.59503" lon="6.50646">
        <ele>305</ele>
        <time>2010-01-01T01:57:47Z</time>
      </trkpt>
      <trkpt lat="47.59389" lon="6.50564">
        <ele>298</ele>
        <time>2010-01-01T01:58:37Z</time>
      </trkpt>
      <trkpt lat="47.59312" lon="6.50521">
        <ele>295</ele>
        <time>2010-01-01T01:59:10Z</time>
      </trkpt>
      <trkpt lat="47.5927" lon="6.50488">
        <ele>293</ele>
        <time>2010-01-01T01:59:29Z</time>
      </trkpt>
      <trkpt lat="47.59118" lon="6.5027">
        <ele>300</ele>
        <time>2010-01-01T02:00:54Z</time>
      </trkpt>
      <trkpt lat="47.59069" lon="6.50189">
        <ele>307</ele>
        <time>2010-01-01T02:01:23Z</time>
      </trkpt>
      <trkpt lat="47.59024" lon="6.50079">
        <ele>308</ele>
        <time>2010-01-01T02:01:58Z</time>
      </trkpt>
      <trkpt lat="47.58981" lon="6.49816">
        <ele>293</ele>
        <time>2010-01-01T02:03:11Z</time>
      </trkpt>
      <trkpt lat="47.58931" lon="6.49703">
        <ele>289</ele>
        <time>2010-01-01T02:03:48Z</time>
      </trkpt>
      <trkpt lat="47.58886" lon="6.49576">
        <ele>291</ele>
        <time>2010-01-01T02:04:26Z</time>
      </trkpt>
      <trkpt lat="47.58823" lon="6.49321">
        <ele>289</ele>
        <time>2010-01-01T02:05:40Z</time>
      </trkpt>
      <trkpt lat="47.58745" lon="6.48816">
        <ele>289</ele>
        <time>2010-01-01T02:08:00Z</time>
      </trkpt>
      <trkpt lat="47.58685" lon="6.48652">
        <ele>288</ele>
        <time>2010-01-01T02:08:50Z</time>
      </trkpt>
      <trkpt lat="47.58551" lon="6.48175">
        <ele>289</ele>
        <time>2010-01-01T02:11:09Z</time>
      </trkpt>
      <trkpt lat="47.58432" lon="6.4773">
        <ele>282</ele>
        <time>2010-01-01T02:13:19Z</time>
      </trkpt>
      <trkpt lat="47.58411" lon="6.47642">
        <ele>282</ele>
        <time>2010-01-01T02:13:44Z</time>
      </trkpt>
      <trkpt lat="47.58294" lon="6.47453">
        <ele>281</ele>
        <time>2010-01-01T02:14:53Z</time>
      </trkpt>
      <trkpt lat="47.58189" lon="6.47279">
        <ele>280</ele>
        <time>2010-01-01T02:15:56Z</time>
      </trkpt>
      <trkpt lat="47.58142" lon="6.47221">
        <ele>280</ele>
        <time>2010-01-01T02:16:21Z</time>
      </trkpt>
      <trkpt lat="47.58014" lon="6.47138">
        <ele>275</ele>
        <time>2010-01-01T02:17:16Z</time>
      </trkpt>
      <trkpt lat="47.576" lon="6.47129">
        <ele>271</ele>
        <time>2010-01-01T02:20:02Z</time>
      </trkpt>
      <trkpt lat="47.5749" lon="6.46874">
        <ele>271</ele>
        <time>2010-01-01T02:21:24Z</time>
      </trkpt>
      <trkpt lat="47.57376" lon="6.46666">
        <ele>271</ele>
        <time>2010-01-01T02:22:36Z</time>
      </trkpt>
      <trkpt lat="47.57339" lon="6.46613">
        <ele>271</ele>
        <time>2010-01-01T02:22:57Z</time>
      </trkpt>
      <trkpt lat="47.57309" lon="6.46594">
        <ele>271</ele>
        <time>2010-01-01T02:23:10Z</time>
      </trkpt>
      <trkpt lat="47.57275" lon="6.46585">
        <ele>271</ele>
        <time>2010-01-01T02:23:24Z</time>
      </trkpt>
      <trkpt lat="47.57193" lon="6.46605">
        <ele>270</ele>
        <time>2010-01-01T02:23:57Z</time>
      </trkpt>
      <trkpt lat="47.5711" lon="6.46605">
        <ele>269</ele>
        <time>2010-01-01T02:24:30Z</time>
      </trkpt>
      <trkpt lat="47.57052" lon="6.46578">
        <ele>270</ele>
        <time>2010-01-01T02:24:55Z</time>
      </trkpt>
      <trkpt lat="47.57038" lon="6.4655">
        <ele>271</ele>
        <time>2010-01-01T02:25:04Z</time>
      </trkpt>
      <trkpt lat="47.57028" lon="6.46512">
        <ele>273</ele>
        <time>2010-01-01T02:25:15Z</time>
      </trkpt>
      <trkpt lat="47.56987" lon="6.46216">
        <ele>274</ele>
        <time>2010-01-01T02:26:37Z</time>
      </trkpt>
      <trkpt lat="47.569" lon="6.45544">
        <ele>270</ele>
        <time>2010-01-01T02:29:41Z</time>
      </trkpt>
      <trkpt lat="47.56739" lon="6.45063">
        <ele>271</ele>
        <time>2010-01-01T02:32:07Z</time>
      </trkpt>
      <trkpt lat="47.56723" lon="6.45015">
        <ele>270</ele>
        <time>2010-01-01T02:32:21Z</time>
      </trkpt>
      <trkpt lat="47.56595" lon="6.44819">
        <ele>268</ele>
        <time>2010-01-01T02:33:35Z</time>
      </trkpt>
      <trkpt lat="47.56512" lon="6.44869">
        <ele>268</ele>
        <time>2010-01-01T02:34:11Z</time>
      </trkpt>
      <trkpt lat="47.56417" lon="6.45074">
        <ele>268</ele>
        <time>2010-01-01T02:35:18Z</time>
      </trkpt>
      <trkpt lat="47.56411" lon="6.45177">
        <ele>268</ele>
        <time>2010-01-01T02:35:46Z</time>
      </trkpt>
      <trkpt lat="47.56342" lon="6.45281">
        <ele>265</ele>
        <time>2010-01-01T02:36:25Z</time>
      </trkpt>
      <trkpt lat="47.56297" lon="6.45335">
        <ele>265</ele>
        <time>2010-01-01T02:36:48Z</time>
      </trkpt>
      <trkpt lat="47.56276" lon="6.4535">
        <ele>270</ele>
        <time>2010-01-01T02:36:57Z</time>
      </trkpt>
      <trkpt lat="47.56254" lon="6.45338">
        <ele>275</ele>
        <time>2010-01-01T02:37:07Z</time>
      </trkpt>
      <trkpt lat="47.5624" lon="6.45303">
        <ele>273</ele>
        <time>2010-01-01T02:37:18Z</time>
      </trkpt>
      <trkpt lat="47.56212" lon="6.45192">
        <ele>272</ele>
        <time>2010-01-01T02:37:50Z</time>
      </trkpt>
      <trkpt lat="47.56163" lon="6.45071">
        <ele>276</ele>
        <time>2010-01-01T02:38:28Z</time>
      </trkpt>
      <trkpt lat="47.56111" lon="6.45001">
        <ele>285</ele>
        <time>2010-01-01T02:38:56Z</time>
      </trkpt>
      <trkpt lat="47.55918" lon="6.44733">
        <ele>294</ele>
        <time>2010-01-01T02:40:42Z</time>
      </trkpt>
      <trkpt lat="47.55747" lon="6.44354">
        <ele>291</ele>
        <time>2010-01-01T02:42:45Z</time>
      </trkpt>
      <trkpt lat="47.55631" lon="6.44185">
        <ele>295</ele>
        <time>2010-01-01T02:43:50Z</time>
      </trkpt>
      <trkpt lat="47.55577" lon="6.44065">
        <ele>288</ele>
        <time>2010-01-01T02:44:29Z</time>
      </trkpt>
      <trkpt lat="47.55486" lon="6.43905">
        <ele>283</ele>
        <time>2010-01-01T02:45:26Z</time>
      </trkpt>
      <trkpt lat="47.55436" lon="6.43848">
        <ele>279</ele>
        <time>2010-01-01T02:45:51Z</time>
      </trkpt>
      <trkpt lat="47.55385" lon="6.43833">
        <ele>274</ele>
        <time>2010-01-01T02:46:12Z</time>
      </trkpt>
      <trkpt lat="47.55351" lon="6.43831">
        <ele>276</ele>
        <time>2010-01-01T02:46:26Z</time>
      </trkpt>
      <trkpt lat="47.55325" lon="6.43789">
        <ele>274</ele>
        <time>2010-01-01T02:46:41Z</time>
      </trkpt>
      <trkpt lat="47.5537" lon="6.43746">
        <ele>269</ele>
        <time>2010-01-01T02:47:02Z</time>
      </trkpt>
      <trkpt lat="47.55374" lon="6.4368">
        <ele>265</ele>
        <time>2010-01-01T02:47:20Z</time>
      </trkpt>
      <trkpt lat="47.55318" lon="6.43584">
        <ele>264</ele>
        <time>2010-01-01T02:47:54Z</time>
      </trkpt>
      <trkpt lat="47.5529" lon="6.4352">
        <ele>268</ele>
        <time>2010-01-01T02:48:15Z</time>
      </trkpt>
      <trkpt lat="47.55322" lon="6.43496">
        <ele>265</ele>
        <time>2010-01-01T02:48:29Z</time>
      </trkpt>
      <trkpt lat="47.55556" lon="6.43514">
        <ele>264</ele>
        <time>2010-01-01T02:50:03Z</time>
      </trkpt>
      <trkpt lat="47.55662" lon="6.43549">
        <ele>265</ele>
        <time>2010-01-01T02:50:47Z</time>
      </trkpt>
      <trkpt lat="47.55747" lon="6.43519">
        <ele>265</ele>
        <time>2010-01-01T02:51:22Z</time>
      </trkpt>
      <trkpt lat="47.55842" lon="6.4357">
        <ele>264</ele>
        <time>2010-01-01T02:52:02Z</time>
      </trkpt>
    </trkseg>
  </trk>
</gpx>